Asher, Kentucky
Current Conditions -  °F | °C
As of 7:35 AM on Thursday 29 Jan 2015 (Local Time) from KI35 Reporting Station
Clear Clear  
Wind Chill: 37°   Ceiling: Unl
Heat Index: 37°   Visibility: 10mi
Dew Point: 19°   Wind: 0mph
Humidity: 48%   Direction: NA
Pressure: 30.12"   Gusts: NA
Location:  37.04°N, 83.4°W
Report Text: KI35 291235Z AUTO 00000KT 10SM CLR 03/M07 A3012 RMK AO1
Loading
Personal Weather Stations






























Interactive Weather Map New forecast layout! Learn more

10-Day Weather Forecast

Advertisements
Track Severe Weather on mobile